Terminal Aerodrome Forecast
Issued by NWS

Current Version | Previous Version | Graphics & Text | Print | Product List | Glossary On
Versions: 1 2 3 4 5 6 7 8 9 10 11 12 13 14 15 16 17 18 19 20 21 22 23 24 25
000
FTUS41 KRLX 292300 RRA
TAFCKB
TAF
KCKB 292345Z 3000/3024 22010G17KT P6SM OVC025
     FM300200 25007KT P6SM -SHRA OVC025
     FM300400 26007KT P6SM -SHRASN OVC015
     FM300600 27006KT 4SM -SHSN BR OVC010
     FM300800 28007KT 2SM -SHSN BR OVC010
     FM301300 29009G16KT 4SM -SHSN BR OVC025
     FM301500 31010G20KT 3SM -SHSN BR BKN025
     FM301700 30009G18KT P6SM -SHSN BKN025
     FM302300 30008G13KT P6SM -SHSN BKN035=

USA.gov is the U.S. government's official web portal to all federal, state and local government web resources and services.